Nearby METAR Reports

 

KHCR - Heber/Russ Mcdon, Utah, USA
Distance from station: SSW 18mi, 29km
Updated: Mon, 26-Feb-2024 12:15am MST
Few Clouds
Few Clouds
 Wind from SW
Wind: SW 9 mph , 15 km/h
Temperature: 45°F , 7°C
Wind Chill: 40°F , 4°C
Dew Point: 27°F , -3°C
Humidity: 49%
Barometer: 29.91 inHg , 1012.9 hPa
Clouds: Few Clouds
Visibility: 10 miles , 16 km
Cloud details: Few Clouds 19000 ft
2024/02/26 07:15 KHCR 260715Z AUTO 23008KT 10SM FEW190 07/M03 A2991 RMK AO2 T00731034
KSLC - Salt Lake City, Utah, USA
Distance from station: W 35mi, 57km
Updated: Sun, 25-Feb-2024 11:54pm MST
Mostly cloudy
Mostly cloudy
 Wind from S
Wind: S 16 mph , 26 km/h, Gust: 26 mph , 43 km/h
Temperature: 54°F , 12°C
Dew Point: 27°F , -3°C
Humidity: 35%
Barometer: 29.87 inHg , 1011.5 hPa
Clouds: Mostly cloudy
Visibility: 10 miles , 16 km
Cloud details: Few Clouds 13000 ft
Mostly cloudy 22000 ft
2024/02/26 06:54 KSLC 260654Z 18014G23KT 10SM FEW130 BKN220 12/M03 A2987 RMK AO2 SLP087 T01171028 401720017
 
KU42 - Salt Lake Muni, Utah, USA
Distance from station: WSW 37mi, 59km
Updated: Mon, 26-Feb-2024 12:35am MST
Clear
Clear
 Wind from SE
Wind: SE 14 mph , 22 km/h, Gust: 21 mph , 33 km/h
Temperature: 50°F , 10°C
Wind Chill: 45°F , 7°C
Dew Point: 25°F , -4°C
Humidity: 37%
Barometer: 29.89 inHg , 1012.2 hPa
Clouds: Clear
Visibility: 10 miles , 16 km
2024/02/26 07:35 KU42 260735Z AUTO 14012G18KT 10SM CLR 10/M04 A2989 RMK AO1 T01001038
KEVW - Evanston, Wyoming, USA
Distance from station: NNE 40mi, 64km
Updated: Sun, 25-Feb-2024 11:53pm MST
Clear
Clear
 Wind from SW
Wind: SW 10 mph , 17 km/h
Temperature: 34°F , 1°C
Wind Chill: 26°F , -3°C
Dew Point: 18°F , -8°C
Humidity: 51%
Barometer: 29.90 inHg , 1012.5 hPa
Clouds: Clear
Visibility: 10 miles , 16 km
2024/02/26 06:53 KEVW 260653Z AUTO 22009KT 10SM CLR 01/M08 A2990 RMK AO2 SLP105 T00061078 400611044
 
KPVU - Provo Muni, Utah, USA
Distance from station: SSW 41mi, 67km
Updated: Sun, 25-Feb-2024 11:56pm MST
Mostly cloudy
Mostly cloudy
 Wind from NNE
Wind: NNE 5 mph , 7 km/h
Temperature: 50°F , 10°C
Wind Chill: 48°F , 9°C
Dew Point: 27°F , -3°C
Humidity: 40%
Barometer: 29.93 inHg , 1013.5 hPa
Clouds: Mostly cloudy
Visibility: 10 miles , 16 km
Cloud details: Mostly cloudy 12000 ft
2024/02/26 06:56 KPVU 260656Z AUTO 02004KT 10SM BKN120 10/M03 A2993 RMK AO2 SLP113 T01001028 401611028
KHIF - Hill Afb/Ogden, Utah, USA
Distance from station: NW 45mi, 72km
Updated: Sun, 25-Feb-2024 11:55pm MST
Few Clouds
Few Clouds
 Wind from S
Wind: S 16 mph , 26 km/h
Temperature: 46°F , 8°C
Wind Chill: 39°F , 4°C
Dew Point: 23°F , -5°C
Humidity: 40%
Barometer: 29.85 inHg , 1010.8 hPa
Clouds: Few Clouds
Visibility: 10 miles , 16 km
Cloud details: Few Clouds 11000 ft
2024/02/26 06:55 KHIF 260655Z AUTO 17014KT 10SM FEW110 08/M05 A2985 RMK AO2 SLP083 T00761048 401380015
 
KOGD - Ogden, Utah, USA
Distance from station: NW 50mi, 81km
Updated: Sun, 25-Feb-2024 11:53pm MST
Clear
Clear
 Wind from SSE
Wind: SSE 9 mph , 15 km/h
Temperature: 46°F , 8°C
Wind Chill: 41°F , 5°C
Dew Point: 25°F , -4°C
Humidity: 43%
Barometer: 29.86 inHg , 1011.2 hPa
Clouds: Clear
Visibility: 10 miles , 16 km
2024/02/26 06:53 KOGD 260653Z AUTO 16008KT 10SM CLR 08/M04 A2986 RMK AO2 SLP088 T00781039 401560011